sensor_id;sensor_type;location;lat;lon;timestamp;P1;durP1;ratioP1;P2;durP2;ratioP2
25349;SDS011;13302;48.796;11.978;2023-07-09T00:00:41;4.90;;;4.50;;
25349;SDS011;13302;48.796;11.978;2023-07-09T00:03:28;4.83;;;4.40;;
25349;SDS011;13302;48.796;11.978;2023-07-09T00:06:15;4.60;;;4.10;;
25349;SDS011;13302;48.796;11.978;2023-07-09T00:09:09;4.43;;;4.10;;
25349;SDS011;13302;48.796;11.978;2023-07-09T00:12:00;5.60;;;4.33;;
25349;SDS011;13302;48.796;11.978;2023-07-09T00:14:47;5.17;;;4.70;;
25349;SDS011;13302;48.796;11.978;2023-07-09T00:17:34;5.13;;;4.30;;
25349;SDS011;13302;48.796;11.978;2023-07-09T00:20:22;4.53;;;4.23;;
25349;SDS011;13302;48.796;11.978;2023-07-09T00:23:10;4.47;;;4.17;;
25349;SDS011;13302;48.796;11.978;2023-07-09T00:26:00;5.07;;;4.60;;
25349;SDS011;13302;48.796;11.978;2023-07-09T00:28:50;6.97;;;4.57;;
25349;SDS011;13302;48.796;11.978;2023-07-09T00:31:38;5.87;;;4.70;;
25349;SDS011;13302;48.796;11.978;2023-07-09T00:34:28;4.90;;;4.50;;
25349;SDS011;13302;48.796;11.978;2023-07-09T00:37:16;4.70;;;4.20;;
25349;SDS011;13302;48.796;11.978;2023-07-09T00:40:09;5.00;;;4.53;;
25349;SDS011;13302;48.796;11.978;2023-07-09T00:43:01;5.17;;;4.70;;
25349;SDS011;13302;48.796;11.978;2023-07-09T00:46:08;4.93;;;4.37;;
25349;SDS011;13302;48.796;11.978;2023-07-09T00:49:01;4.73;;;4.33;;
25349;SDS011;13302;48.796;11.978;2023-07-09T00:51:55;5.30;;;4.80;;
25349;SDS011;13302;48.796;11.978;2023-07-09T00:54:48;4.47;;;4.07;;
25349;SDS011;13302;48.796;11.978;2023-07-09T00:57:39;5.30;;;4.23;;
25349;SDS011;13302;48.796;11.978;2023-07-09T01:00:31;5.07;;;4.67;;
25349;SDS011;13302;48.796;11.978;2023-07-09T01:06:23;5.00;;;4.47;;
25349;SDS011;13302;48.796;11.978;2023-07-09T01:09:28;5.03;;;4.53;;
25349;SDS011;13302;48.796;11.978;2023-07-09T01:12:16;5.07;;;4.67;;
25349;SDS011;13302;48.796;11.978;2023-07-09T01:15:06;4.93;;;4.53;;
25349;SDS011;13302;48.796;11.978;2023-07-09T01:17:54;5.07;;;4.67;;
25349;SDS011;13302;48.796;11.978;2023-07-09T01:20:41;4.93;;;4.53;;
25349;SDS011;13302;48.796;11.978;2023-07-09T01:23:28;4.80;;;4.30;;
25349;SDS011;13302;48.796;11.978;2023-07-09T01:26:17;4.57;;;4.27;;
25349;SDS011;13302;48.796;11.978;2023-07-09T01:29:06;5.00;;;4.50;;
25349;SDS011;13302;48.796;11.978;2023-07-09T01:31:54;4.63;;;4.33;;
25349;SDS011;13302;48.796;11.978;2023-07-09T01:34:44;5.10;;;4.70;;
25349;SDS011;13302;48.796;11.978;2023-07-09T01:37:35;5.13;;;4.73;;
25349;SDS011;13302;48.796;11.978;2023-07-09T01:40:24;5.03;;;4.63;;
25349;SDS011;13302;48.796;11.978;2023-07-09T01:43:19;4.80;;;4.40;;
25349;SDS011;13302;48.796;11.978;2023-07-09T01:46:07;5.37;;;4.37;;
25349;SDS011;13302;48.796;11.978;2023-07-09T01:48:55;4.97;;;4.57;;
25349;SDS011;13302;48.796;11.978;2023-07-09T01:51:42;5.33;;;4.60;;
25349;SDS011;13302;48.796;11.978;2023-07-09T01:54:30;4.80;;;4.40;;
25349;SDS011;13302;48.796;11.978;2023-07-09T02:00:13;5.50;;;4.87;;
25349;SDS011;13302;48.796;11.978;2023-07-09T02:03:03;5.20;;;4.80;;
25349;SDS011;13302;48.796;11.978;2023-07-09T02:05:54;4.80;;;4.50;;
25349;SDS011;13302;48.796;11.978;2023-07-09T02:08:41;5.73;;;5.23;;
25349;SDS011;13302;48.796;11.978;2023-07-09T02:11:28;5.17;;;4.73;;
25349;SDS011;13302;48.796;11.978;2023-07-09T02:14:16;4.93;;;4.50;;
25349;SDS011;13302;48.796;11.978;2023-07-09T02:17:03;5.03;;;4.63;;
25349;SDS011;13302;48.796;11.978;2023-07-09T02:19:50;5.47;;;4.97;;
25349;SDS011;13302;48.796;11.978;2023-07-09T02:22:37;6.70;;;5.10;;
25349;SDS011;13302;48.796;11.978;2023-07-09T02:25:25;5.07;;;4.60;;
25349;SDS011;13302;48.796;11.978;2023-07-09T02:28:12;5.00;;;4.50;;
25349;SDS011;13302;48.796;11.978;2023-07-09T02:30:59;5.37;;;4.67;;
25349;SDS011;13302;48.796;11.978;2023-07-09T02:33:46;6.50;;;5.00;;
25349;SDS011;13302;48.796;11.978;2023-07-09T02:36:34;4.77;;;4.37;;
25349;SDS011;13302;48.796;11.978;2023-07-09T02:39:21;5.43;;;4.83;;
25349;SDS011;13302;48.796;11.978;2023-07-09T02:42:09;5.33;;;4.93;;
25349;SDS011;13302;48.796;11.978;2023-07-09T02:44:58;5.20;;;4.80;;
25349;SDS011;13302;48.796;11.978;2023-07-09T02:47:47;5.83;;;5.40;;
25349;SDS011;13302;48.796;11.978;2023-07-09T02:50:34;5.53;;;5.03;;
25349;SDS011;13302;48.796;11.978;2023-07-09T02:53:22;5.40;;;4.60;;
25349;SDS011;13302;48.796;11.978;2023-07-09T02:56:09;4.93;;;4.40;;
25349;SDS011;13302;48.796;11.978;2023-07-09T02:58:56;5.87;;;5.13;;
25349;SDS011;13302;48.796;11.978;2023-07-09T03:01:44;5.70;;;5.20;;
25349;SDS011;13302;48.796;11.978;2023-07-09T03:04:31;6.20;;;5.53;;
25349;SDS011;13302;48.796;11.978;2023-07-09T03:07:19;6.17;;;5.57;;
25349;SDS011;13302;48.796;11.978;2023-07-09T03:10:06;6.80;;;6.10;;
25349;SDS011;13302;48.796;11.978;2023-07-09T03:12:54;7.17;;;5.57;;
25349;SDS011;13302;48.796;11.978;2023-07-09T03:15:41;6.13;;;5.63;;
25349;SDS011;13302;48.796;11.978;2023-07-09T03:18:28;5.40;;;5.00;;
25349;SDS011;13302;48.796;11.978;2023-07-09T03:21:15;7.30;;;5.73;;
25349;SDS011;13302;48.796;11.978;2023-07-09T03:24:02;5.83;;;5.33;;
25349;SDS011;13302;48.796;11.978;2023-07-09T03:26:49;5.30;;;4.90;;
25349;SDS011;13302;48.796;11.978;2023-07-09T03:29:36;5.80;;;5.20;;
25349;SDS011;13302;48.796;11.978;2023-07-09T03:32:24;6.57;;;5.50;;
25349;SDS011;13302;48.796;11.978;2023-07-09T03:35:11;5.83;;;5.30;;
25349;SDS011;13302;48.796;11.978;2023-07-09T03:37:58;6.93;;;5.70;;
25349;SDS011;13302;48.796;11.978;2023-07-09T03:40:45;5.90;;;5.07;;
25349;SDS011;13302;48.796;11.978;2023-07-09T03:43:36;7.17;;;5.47;;
25349;SDS011;13302;48.796;11.978;2023-07-09T03:46:23;6.70;;;5.30;;
25349;SDS011;13302;48.796;11.978;2023-07-09T03:49:10;5.80;;;5.20;;
25349;SDS011;13302;48.796;11.978;2023-07-09T03:51:57;5.57;;;5.07;;
25349;SDS011;13302;48.796;11.978;2023-07-09T03:54:44;6.70;;;5.53;;
25349;SDS011;13302;48.796;11.978;2023-07-09T03:57:31;6.90;;;5.37;;
25349;SDS011;13302;48.796;11.978;2023-07-09T04:00:18;5.73;;;5.20;;
25349;SDS011;13302;48.796;11.978;2023-07-09T04:03:05;5.37;;;5.00;;
25349;SDS011;13302;48.796;11.978;2023-07-09T04:05:55;6.33;;;5.50;;
25349;SDS011;13302;48.796;11.978;2023-07-09T04:08:42;5.67;;;5.17;;
25349;SDS011;13302;48.796;11.978;2023-07-09T04:11:29;5.93;;;5.03;;
25349;SDS011;13302;48.796;11.978;2023-07-09T04:14:16;6.67;;;5.13;;
25349;SDS011;13302;48.796;11.978;2023-07-09T04:17:03;6.10;;;5.50;;
25349;SDS011;13302;48.796;11.978;2023-07-09T04:19:51;6.47;;;5.70;;
25349;SDS011;13302;48.796;11.978;2023-07-09T04:22:39;7.10;;;5.83;;
25349;SDS011;13302;48.796;11.978;2023-07-09T04:25:27;6.07;;;5.57;;
25349;SDS011;13302;48.796;11.978;2023-07-09T04:28:14;6.17;;;5.57;;
25349;SDS011;13302;48.796;11.978;2023-07-09T04:31:01;6.60;;;5.90;;
25349;SDS011;13302;48.796;11.978;2023-07-09T04:33:49;6.77;;;5.77;;
25349;SDS011;13302;48.796;11.978;2023-07-09T04:36:39;5.57;;;5.07;;
25349;SDS011;13302;48.796;11.978;2023-07-09T04:39:26;6.73;;;5.47;;
25349;SDS011;13302;48.796;11.978;2023-07-09T04:42:14;5.57;;;5.07;;
25349;SDS011;13302;48.796;11.978;2023-07-09T04:45:03;9.03;;;5.80;;
25349;SDS011;13302;48.796;11.978;2023-07-09T04:47:50;8.27;;;6.00;;
25349;SDS011;13302;48.796;11.978;2023-07-09T04:50:39;6.97;;;5.40;;
25349;SDS011;13302;48.796;11.978;2023-07-09T04:53:27;7.37;;;5.63;;
25349;SDS011;13302;48.796;11.978;2023-07-09T04:56:14;5.60;;;5.10;;
25349;SDS011;13302;48.796;11.978;2023-07-09T04:59:01;8.03;;;5.53;;
25349;SDS011;13302;48.796;11.978;2023-07-09T05:01:49;7.87;;;5.67;;
25349;SDS011;13302;48.796;11.978;2023-07-09T05:04:36;6.60;;;5.20;;
25349;SDS011;13302;48.796;11.978;2023-07-09T05:07:23;6.77;;;5.80;;
25349;SDS011;13302;48.796;11.978;2023-07-09T05:10:10;6.70;;;6.10;;
25349;SDS011;13302;48.796;11.978;2023-07-09T05:12:57;7.33;;;6.03;;
25349;SDS011;13302;48.796;11.978;2023-07-09T05:15:45;7.97;;;5.87;;
25349;SDS011;13302;48.796;11.978;2023-07-09T05:18:33;7.10;;;6.03;;
25349;SDS011;13302;48.796;11.978;2023-07-09T05:21:20;6.37;;;5.57;;
25349;SDS011;13302;48.796;11.978;2023-07-09T05:24:07;7.37;;;5.83;;
25349;SDS011;13302;48.796;11.978;2023-07-09T05:26:55;6.63;;;5.73;;
25349;SDS011;13302;48.796;11.978;2023-07-09T05:29:42;6.40;;;5.80;;
25349;SDS011;13302;48.796;11.978;2023-07-09T05:32:29;6.90;;;6.20;;
25349;SDS011;13302;48.796;11.978;2023-07-09T05:35:16;6.87;;;6.27;;
25349;SDS011;13302;48.796;11.978;2023-07-09T05:38:04;7.00;;;5.40;;
25349;SDS011;13302;48.796;11.978;2023-07-09T05:41:01;8.13;;;6.27;;
25349;SDS011;13302;48.796;11.978;2023-07-09T05:43:50;7.00;;;6.27;;
25349;SDS011;13302;48.796;11.978;2023-07-09T05:46:38;6.00;;;5.50;;
25349;SDS011;13302;48.796;11.978;2023-07-09T05:49:25;6.20;;;5.60;;
25349;SDS011;13302;48.796;11.978;2023-07-09T05:52:12;7.40;;;6.70;;
25349;SDS011;13302;48.796;11.978;2023-07-09T05:54:59;7.20;;;6.50;;
25349;SDS011;13302;48.796;11.978;2023-07-09T05:57:47;7.87;;;7.07;;
25349;SDS011;13302;48.796;11.978;2023-07-09T06:00:34;8.10;;;7.30;;
25349;SDS011;13302;48.796;11.978;2023-07-09T06:03:25;6.63;;;6.03;;
25349;SDS011;13302;48.796;11.978;2023-07-09T06:06:13;7.47;;;6.77;;
25349;SDS011;13302;48.796;11.978;2023-07-09T06:09:01;7.17;;;6.30;;
25349;SDS011;13302;48.796;11.978;2023-07-09T06:11:48;7.50;;;6.80;;
25349;SDS011;13302;48.796;11.978;2023-07-09T06:14:35;7.00;;;6.37;;
25349;SDS011;13302;48.796;11.978;2023-07-09T06:17:22;8.17;;;6.77;;
25349;SDS011;13302;48.796;11.978;2023-07-09T06:20:10;7.40;;;6.70;;
25349;SDS011;13302;48.796;11.978;2023-07-09T06:22:57;9.97;;;7.10;;
25349;SDS011;13302;48.796;11.978;2023-07-09T06:25:45;6.77;;;5.60;;
25349;SDS011;13302;48.796;11.978;2023-07-09T06:28:34;9.17;;;6.40;;
25349;SDS011;13302;48.796;11.978;2023-07-09T06:31:21;6.73;;;5.73;;
25349;SDS011;13302;48.796;11.978;2023-07-09T06:34:08;6.87;;;6.27;;
25349;SDS011;13302;48.796;11.978;2023-07-09T06:36:56;6.40;;;5.90;;
25349;SDS011;13302;48.796;11.978;2023-07-09T06:39:43;7.17;;;5.67;;
25349;SDS011;13302;48.796;11.978;2023-07-09T06:42:30;6.73;;;5.97;;
25349;SDS011;13302;48.796;11.978;2023-07-09T06:45:30;6.87;;;6.17;;
25349;SDS011;13302;48.796;11.978;2023-07-09T06:48:18;8.83;;;6.33;;
25349;SDS011;13302;48.796;11.978;2023-07-09T06:51:06;6.87;;;6.20;;
25349;SDS011;13302;48.796;11.978;2023-07-09T06:53:54;6.90;;;6.30;;
25349;SDS011;13302;48.796;11.978;2023-07-09T06:56:41;5.80;;;5.30;;
25349;SDS011;13302;48.796;11.978;2023-07-09T06:59:28;6.00;;;5.40;;
25349;SDS011;13302;48.796;11.978;2023-07-09T07:02:15;6.30;;;5.70;;
25349;SDS011;13302;48.796;11.978;2023-07-09T07:05:02;6.57;;;5.97;;
25349;SDS011;13302;48.796;11.978;2023-07-09T07:07:49;7.93;;;5.90;;
25349;SDS011;13302;48.796;11.978;2023-07-09T07:10:37;6.77;;;6.07;;
25349;SDS011;13302;48.796;11.978;2023-07-09T07:13:28;5.97;;;5.20;;
25349;SDS011;13302;48.796;11.978;2023-07-09T07:16:16;6.50;;;5.90;;
25349;SDS011;13302;48.796;11.978;2023-07-09T07:19:03;6.10;;;5.50;;
25349;SDS011;13302;48.796;11.978;2023-07-09T07:21:52;6.47;;;5.80;;
25349;SDS011;13302;48.796;11.978;2023-07-09T07:24:39;6.47;;;5.80;;
25349;SDS011;13302;48.796;11.978;2023-07-09T07:27:27;6.70;;;5.93;;
25349;SDS011;13302;48.796;11.978;2023-07-09T07:30:15;6.00;;;5.40;;
25349;SDS011;13302;48.796;11.978;2023-07-09T07:33:02;6.13;;;5.60;;
25349;SDS011;13302;48.796;11.978;2023-07-09T07:35:49;6.27;;;5.67;;
25349;SDS011;13302;48.796;11.978;2023-07-09T07:38:56;6.37;;;5.13;;
25349;SDS011;13302;48.796;11.978;2023-07-09T07:41:43;5.50;;;5.00;;
25349;SDS011;13302;48.796;11.978;2023-07-09T07:44:30;5.83;;;5.23;;
25349;SDS011;13302;48.796;11.978;2023-07-09T07:47:17;5.90;;;5.40;;
25349;SDS011;13302;48.796;11.978;2023-07-09T07:50:05;6.20;;;5.50;;
25349;SDS011;13302;48.796;11.978;2023-07-09T07:52:53;5.53;;;5.03;;
25349;SDS011;13302;48.796;11.978;2023-07-09T07:55:40;5.00;;;4.60;;
25349;SDS011;13302;48.796;11.978;2023-07-09T07:58:28;5.20;;;4.70;;
25349;SDS011;13302;48.796;11.978;2023-07-09T08:01:15;5.30;;;4.80;;
25349;SDS011;13302;48.796;11.978;2023-07-09T08:04:03;5.33;;;4.93;;
25349;SDS011;13302;48.796;11.978;2023-07-09T08:06:50;5.73;;;5.10;;
25349;SDS011;13302;48.796;11.978;2023-07-09T08:09:37;5.67;;;5.13;;
25349;SDS011;13302;48.796;11.978;2023-07-09T08:12:25;6.37;;;5.00;;
25349;SDS011;13302;48.796;11.978;2023-07-09T08:15:12;4.80;;;4.40;;
25349;SDS011;13302;48.796;11.978;2023-07-09T08:17:59;5.23;;;4.80;;
25349;SDS011;13302;48.796;11.978;2023-07-09T08:20:46;5.50;;;5.00;;
25349;SDS011;13302;48.796;11.978;2023-07-09T08:23:33;4.93;;;4.53;;
25349;SDS011;13302;48.796;11.978;2023-07-09T08:26:20;5.40;;;4.90;;
25349;SDS011;13302;48.796;11.978;2023-07-09T08:29:07;5.63;;;4.87;;
25349;SDS011;13302;48.796;11.978;2023-07-09T08:31:55;5.20;;;4.80;;
25349;SDS011;13302;48.796;11.978;2023-07-09T08:34:42;6.27;;;5.03;;
25349;SDS011;13302;48.796;11.978;2023-07-09T08:37:49;5.13;;;4.73;;
25349;SDS011;13302;48.796;11.978;2023-07-09T08:40:40;6.07;;;5.57;;
25349;SDS011;13302;48.796;11.978;2023-07-09T08:43:39;5.27;;;4.83;;
25349;SDS011;13302;48.796;11.978;2023-07-09T08:46:36;5.33;;;4.90;;
25349;SDS011;13302;48.796;11.978;2023-07-09T08:49:53;5.77;;;5.27;;
25349;SDS011;13302;48.796;11.978;2023-07-09T08:52:47;5.37;;;4.87;;
25349;SDS011;13302;48.796;11.978;2023-07-09T08:55:36;5.13;;;4.73;;
25349;SDS011;13302;48.796;11.978;2023-07-09T08:58:28;5.80;;;5.30;;
25349;SDS011;13302;48.796;11.978;2023-07-09T09:01:22;5.03;;;4.53;;
25349;SDS011;13302;48.796;11.978;2023-07-09T09:04:18;4.97;;;4.60;;
25349;SDS011;13302;48.796;11.978;2023-07-09T09:07:31;5.13;;;4.73;;
25349;SDS011;13302;48.796;11.978;2023-07-09T09:10:29;4.87;;;4.47;;
25349;SDS011;13302;48.796;11.978;2023-07-09T09:13:23;4.70;;;4.30;;
25349;SDS011;13302;48.796;11.978;2023-07-09T09:16:17;4.50;;;4.10;;
25349;SDS011;13302;48.796;11.978;2023-07-09T09:19:32;5.07;;;4.67;;
25349;SDS011;13302;48.796;11.978;2023-07-09T09:22:25;3.97;;;3.67;;
25349;SDS011;13302;48.796;11.978;2023-07-09T09:25:21;8.33;;;4.20;;
25349;SDS011;13302;48.796;11.978;2023-07-09T09:28:14;4.17;;;3.77;;
25349;SDS011;13302;48.796;11.978;2023-07-09T09:31:01;5.47;;;4.30;;
25349;SDS011;13302;48.796;11.978;2023-07-09T09:33:49;4.90;;;4.40;;
25349;SDS011;13302;48.796;11.978;2023-07-09T09:36:36;7.27;;;4.40;;
25349;SDS011;13302;48.796;11.978;2023-07-09T09:39:24;4.33;;;3.93;;
25349;SDS011;13302;48.796;11.978;2023-07-09T09:42:12;4.03;;;3.70;;
25349;SDS011;13302;48.796;11.978;2023-07-09T09:45:00;4.53;;;3.93;;
25349;SDS011;13302;48.796;11.978;2023-07-09T09:47:47;4.13;;;3.83;;
25349;SDS011;13302;48.796;11.978;2023-07-09T09:50:36;4.63;;;4.23;;
25349;SDS011;13302;48.796;11.978;2023-07-09T09:53:23;4.67;;;4.37;;
25349;SDS011;13302;48.796;11.978;2023-07-09T09:56:13;4.60;;;4.03;;
25349;SDS011;13302;48.796;11.978;2023-07-09T09:59:17;4.47;;;4.07;;
25349;SDS011;13302;48.796;11.978;2023-07-09T10:02:21;4.53;;;3.57;;
25349;SDS011;13302;48.796;11.978;2023-07-09T10:05:16;4.03;;;3.63;;
25349;SDS011;13302;48.796;11.978;2023-07-09T10:08:09;4.00;;;3.60;;
25349;SDS011;13302;48.796;11.978;2023-07-09T10:11:08;4.37;;;4.03;;
25349;SDS011;13302;48.796;11.978;2023-07-09T10:14:04;4.47;;;4.07;;
25349;SDS011;13302;48.796;11.978;2023-07-09T10:17:15;3.87;;;3.43;;
25349;SDS011;13302;48.796;11.978;2023-07-09T10:20:18;4.37;;;4.00;;
25349;SDS011;13302;48.796;11.978;2023-07-09T10:23:31;6.60;;;4.00;;
25349;SDS011;13302;48.796;11.978;2023-07-09T10:26:23;3.80;;;3.40;;
25349;SDS011;13302;48.796;11.978;2023-07-09T10:38:26;4.73;;;3.50;;
25349;SDS011;13302;48.796;11.978;2023-07-09T10:41:35;3.47;;;3.27;;
25349;SDS011;13302;48.796;11.978;2023-07-09T10:44:27;4.33;;;4.03;;
25349;SDS011;13302;48.796;11.978;2023-07-09T10:50:31;4.23;;;3.87;;
25349;SDS011;13302;48.796;11.978;2023-07-09T10:56:27;4.10;;;3.80;;
25349;SDS011;13302;48.796;11.978;2023-07-09T11:02:26;4.10;;;3.70;;
25349;SDS011;13302;48.796;11.978;2023-07-09T11:05:16;3.73;;;3.43;;
25349;SDS011;13302;48.796;11.978;2023-07-09T11:08:12;4.03;;;3.70;;
25349;SDS011;13302;48.796;11.978;2023-07-09T11:11:34;6.57;;;3.93;;
25349;SDS011;13302;48.796;11.978;2023-07-09T11:17:22;4.50;;;4.07;;
25349;SDS011;13302;48.796;11.978;2023-07-09T11:20:21;3.83;;;3.53;;
25349;SDS011;13302;48.796;11.978;2023-07-09T11:23:21;4.17;;;3.80;;
25349;SDS011;13302;48.796;11.978;2023-07-09T11:26:12;4.17;;;3.70;;
25349;SDS011;13302;48.796;11.978;2023-07-09T11:31:48;3.60;;;3.40;;
25349;SDS011;13302;48.796;11.978;2023-07-09T11:34:43;3.93;;;3.63;;
25349;SDS011;13302;48.796;11.978;2023-07-09T11:37:32;4.33;;;3.63;;
25349;SDS011;13302;48.796;11.978;2023-07-09T11:40:30;6.40;;;3.87;;
25349;SDS011;13302;48.796;11.978;2023-07-09T11:43:27;3.80;;;3.50;;
25349;SDS011;13302;48.796;11.978;2023-07-09T11:46:17;4.10;;;3.77;;
25349;SDS011;13302;48.796;11.978;2023-07-09T11:49:07;4.70;;;4.30;;
25349;SDS011;13302;48.796;11.978;2023-07-09T11:52:00;4.93;;;3.50;;
25349;SDS011;13302;48.796;11.978;2023-07-09T11:54:50;5.97;;;3.70;;
25349;SDS011;13302;48.796;11.978;2023-07-09T11:57:38;7.27;;;4.10;;
25349;SDS011;13302;48.796;11.978;2023-07-09T12:00:25;4.27;;;3.93;;
25349;SDS011;13302;48.796;11.978;2023-07-09T12:03:20;6.37;;;4.13;;
25349;SDS011;13302;48.796;11.978;2023-07-09T12:09:16;3.90;;;3.60;;
25349;SDS011;13302;48.796;11.978;2023-07-09T12:12:15;4.37;;;3.97;;
25349;SDS011;13302;48.796;11.978;2023-07-09T12:15:05;4.63;;;4.30;;
25349;SDS011;13302;48.796;11.978;2023-07-09T12:18:02;4.60;;;4.07;;
25349;SDS011;13302;48.796;11.978;2023-07-09T12:20:56;4.17;;;3.60;;
25349;SDS011;13302;48.796;11.978;2023-07-09T12:23:43;4.30;;;3.90;;
25349;SDS011;13302;48.796;11.978;2023-07-09T12:26:30;5.40;;;4.20;;
25349;SDS011;13302;48.796;11.978;2023-07-09T12:29:18;4.50;;;4.13;;
25349;SDS011;13302;48.796;11.978;2023-07-09T12:32:10;4.70;;;4.30;;
25349;SDS011;13302;48.796;11.978;2023-07-09T12:34:59;4.30;;;3.77;;
25349;SDS011;13302;48.796;11.978;2023-07-09T12:37:46;3.97;;;3.60;;
25349;SDS011;13302;48.796;11.978;2023-07-09T12:40:35;4.23;;;3.63;;
25349;SDS011;13302;48.796;11.978;2023-07-09T12:43:24;6.70;;;4.27;;
25349;SDS011;13302;48.796;11.978;2023-07-09T12:46:14;4.37;;;3.97;;
25349;SDS011;13302;48.796;11.978;2023-07-09T12:49:04;6.17;;;3.80;;
25349;SDS011;13302;48.796;11.978;2023-07-09T12:51:55;4.40;;;4.00;;
25349;SDS011;13302;48.796;11.978;2023-07-09T12:54:52;5.27;;;3.93;;
25349;SDS011;13302;48.796;11.978;2023-07-09T12:57:43;4.00;;;3.60;;
25349;SDS011;13302;48.796;11.978;2023-07-09T13:00:30;4.20;;;3.80;;
25349;SDS011;13302;48.796;11.978;2023-07-09T13:03:19;3.80;;;3.50;;
25349;SDS011;13302;48.796;11.978;2023-07-09T13:06:24;4.13;;;3.57;;
25349;SDS011;13302;48.796;11.978;2023-07-09T13:09:21;4.83;;;3.93;;
25349;SDS011;13302;48.796;11.978;2023-07-09T13:12:10;4.30;;;4.00;;
25349;SDS011;13302;48.796;11.978;2023-07-09T13:14:57;4.53;;;4.20;;
25349;SDS011;13302;48.796;11.978;2023-07-09T13:17:46;4.53;;;4.10;;
25349;SDS011;13302;48.796;11.978;2023-07-09T13:20:35;5.23;;;3.83;;
25349;SDS011;13302;48.796;11.978;2023-07-09T13:23:26;4.20;;;3.80;;
25349;SDS011;13302;48.796;11.978;2023-07-09T13:26:15;4.63;;;3.80;;
25349;SDS011;13302;48.796;11.978;2023-07-09T13:29:02;4.37;;;3.80;;
25349;SDS011;13302;48.796;11.978;2023-07-09T13:31:50;4.17;;;3.87;;
25349;SDS011;13302;48.796;11.978;2023-07-09T13:34:37;4.37;;;3.97;;
25349;SDS011;13302;48.796;11.978;2023-07-09T13:37:25;4.70;;;3.63;;
25349;SDS011;13302;48.796;11.978;2023-07-09T13:40:13;4.63;;;3.60;;
25349;SDS011;13302;48.796;11.978;2023-07-09T13:43:04;5.30;;;3.97;;
25349;SDS011;13302;48.796;11.978;2023-07-09T13:45:55;4.03;;;3.73;;
25349;SDS011;13302;48.796;11.978;2023-07-09T13:48:44;4.57;;;4.27;;
25349;SDS011;13302;48.796;11.978;2023-07-09T13:51:31;4.20;;;3.83;;
25349;SDS011;13302;48.796;11.978;2023-07-09T13:54:21;4.57;;;4.17;;
25349;SDS011;13302;48.796;11.978;2023-07-09T13:57:12;4.30;;;3.90;;
25349;SDS011;13302;48.796;11.978;2023-07-09T14:00:01;4.63;;;4.10;;
25349;SDS011;13302;48.796;11.978;2023-07-09T14:02:51;5.87;;;3.90;;
25349;SDS011;13302;48.796;11.978;2023-07-09T14:05:38;5.57;;;4.13;;
25349;SDS011;13302;48.796;11.978;2023-07-09T14:08:25;4.30;;;3.90;;
25349;SDS011;13302;48.796;11.978;2023-07-09T14:11:14;6.03;;;4.03;;
25349;SDS011;13302;48.796;11.978;2023-07-09T14:14:04;5.30;;;3.80;;
25349;SDS011;13302;48.796;11.978;2023-07-09T14:17:03;3.93;;;3.53;;
25349;SDS011;13302;48.796;11.978;2023-07-09T14:19:51;4.03;;;3.73;;
25349;SDS011;13302;48.796;11.978;2023-07-09T14:22:39;4.00;;;3.70;;
25349;SDS011;13302;48.796;11.978;2023-07-09T14:25:26;5.80;;;4.00;;
25349;SDS011;13302;48.796;11.978;2023-07-09T14:28:19;5.37;;;3.80;;
25349;SDS011;13302;48.796;11.978;2023-07-09T14:31:13;4.37;;;3.97;;
25349;SDS011;13302;48.796;11.978;2023-07-09T14:34:29;4.20;;;3.90;;
25349;SDS011;13302;48.796;11.978;2023-07-09T14:37:19;4.20;;;3.90;;
25349;SDS011;13302;48.796;11.978;2023-07-09T14:40:06;3.87;;;3.60;;
25349;SDS011;13302;48.796;11.978;2023-07-09T14:42:54;3.83;;;3.53;;
25349;SDS011;13302;48.796;11.978;2023-07-09T14:45:42;3.93;;;3.43;;
25349;SDS011;13302;48.796;11.978;2023-07-09T14:48:29;3.60;;;3.30;;
25349;SDS011;13302;48.796;11.978;2023-07-09T14:51:16;5.77;;;4.10;;
25349;SDS011;13302;48.796;11.978;2023-07-09T14:54:10;4.93;;;3.70;;
25349;SDS011;13302;48.796;11.978;2023-07-09T14:57:16;5.03;;;3.80;;
25349;SDS011;13302;48.796;11.978;2023-07-09T15:00:04;3.90;;;3.70;;
25349;SDS011;13302;48.796;11.978;2023-07-09T15:02:52;4.73;;;3.97;;
25349;SDS011;13302;48.796;11.978;2023-07-09T15:05:40;4.07;;;3.67;;
25349;SDS011;13302;48.796;11.978;2023-07-09T15:08:28;4.00;;;3.70;;
25349;SDS011;13302;48.796;11.978;2023-07-09T15:11:15;3.70;;;3.40;;
25349;SDS011;13302;48.796;11.978;2023-07-09T15:14:02;4.53;;;3.90;;
25349;SDS011;13302;48.796;11.978;2023-07-09T15:16:49;4.00;;;3.70;;
25349;SDS011;13302;48.796;11.978;2023-07-09T15:19:36;4.77;;;3.70;;
25349;SDS011;13302;48.796;11.978;2023-07-09T15:22:28;4.20;;;3.77;;
25349;SDS011;13302;48.796;11.978;2023-07-09T15:25:19;3.63;;;3.33;;
25349;SDS011;13302;48.796;11.978;2023-07-09T15:28:11;4.37;;;3.57;;
25349;SDS011;13302;48.796;11.978;2023-07-09T15:30:59;3.70;;;3.40;;
25349;SDS011;13302;48.796;11.978;2023-07-09T15:33:46;4.33;;;4.03;;
25349;SDS011;13302;48.796;11.978;2023-07-09T15:36:33;3.93;;;3.63;;
25349;SDS011;13302;48.796;11.978;2023-07-09T15:39:20;4.07;;;3.50;;
25349;SDS011;13302;48.796;11.978;2023-07-09T15:42:11;4.53;;;4.13;;
25349;SDS011;13302;48.796;11.978;2023-07-09T15:44:59;4.97;;;3.77;;
25349;SDS011;13302;48.796;11.978;2023-07-09T15:47:47;3.70;;;3.50;;
25349;SDS011;13302;48.796;11.978;2023-07-09T15:50:36;5.37;;;3.80;;
25349;SDS011;13302;48.796;11.978;2023-07-09T15:53:24;4.40;;;4.03;;
25349;SDS011;13302;48.796;11.978;2023-07-09T15:59:04;4.90;;;4.43;;
25349;SDS011;13302;48.796;11.978;2023-07-09T16:01:51;4.10;;;3.80;;
25349;SDS011;13302;48.796;11.978;2023-07-09T16:04:41;4.27;;;3.93;;
25349;SDS011;13302;48.796;11.978;2023-07-09T16:07:30;4.20;;;3.53;;
25349;SDS011;13302;48.796;11.978;2023-07-09T16:10:17;4.40;;;4.00;;
25349;SDS011;13302;48.796;11.978;2023-07-09T16:13:11;4.20;;;3.80;;
25349;SDS011;13302;48.796;11.978;2023-07-09T16:16:04;4.30;;;3.90;;
25349;SDS011;13302;48.796;11.978;2023-07-09T16:18:52;4.20;;;3.83;;
25349;SDS011;13302;48.796;11.978;2023-07-09T16:21:39;3.93;;;3.63;;
25349;SDS011;13302;48.796;11.978;2023-07-09T16:24:28;4.03;;;3.63;;
25349;SDS011;13302;48.796;11.978;2023-07-09T16:27:17;4.00;;;3.80;;
25349;SDS011;13302;48.796;11.978;2023-07-09T16:30:09;4.17;;;3.87;;
25349;SDS011;13302;48.796;11.978;2023-07-09T16:32:59;5.87;;;4.07;;
25349;SDS011;13302;48.796;11.978;2023-07-09T16:35:50;3.87;;;3.63;;
25349;SDS011;13302;48.796;11.978;2023-07-09T16:38:40;4.03;;;3.63;;
25349;SDS011;13302;48.796;11.978;2023-07-09T16:41:27;4.10;;;3.70;;
25349;SDS011;13302;48.796;11.978;2023-07-09T16:44:14;3.57;;;3.33;;
25349;SDS011;13302;48.796;11.978;2023-07-09T16:47:01;4.33;;;3.93;;
25349;SDS011;13302;48.796;11.978;2023-07-09T16:49:48;4.00;;;3.60;;
25349;SDS011;13302;48.796;11.978;2023-07-09T16:52:35;4.23;;;3.83;;
25349;SDS011;13302;48.796;11.978;2023-07-09T16:55:23;5.13;;;4.20;;
25349;SDS011;13302;48.796;11.978;2023-07-09T16:58:31;4.87;;;3.90;;
25349;SDS011;13302;48.796;11.978;2023-07-09T17:01:22;4.57;;;3.93;;
25349;SDS011;13302;48.796;11.978;2023-07-09T17:04:22;4.47;;;4.07;;
25349;SDS011;13302;48.796;11.978;2023-07-09T17:07:11;4.70;;;4.30;;
25349;SDS011;13302;48.796;11.978;2023-07-09T17:09:59;4.00;;;3.70;;
25349;SDS011;13302;48.796;11.978;2023-07-09T17:12:54;3.63;;;3.40;;
25349;SDS011;13302;48.796;11.978;2023-07-09T17:15:43;4.57;;;4.07;;
25349;SDS011;13302;48.796;11.978;2023-07-09T17:18:31;5.17;;;4.50;;
25349;SDS011;13302;48.796;11.978;2023-07-09T17:21:19;5.23;;;3.87;;
25349;SDS011;13302;48.796;11.978;2023-07-09T17:24:10;4.07;;;3.77;;